Time;durP1;ratioP1;P1;durP2;ratioP2;P2;SDS_P1;SDS_P2;PMS_P1;PMS_P2;Temp;Humidity;BMP_temperature;BMP_pressure;BME280_temperature;BME280_humidity;BME280_pressure;Samples;Min_cycle;Max_cycle;Signal;HPM_P1;HPM_P2
2021/03/05 00:02:12;;;;;;;44.20;29.27;;;5.90;99.90;;;;;;5091523;28;20504;-82
2021/03/05 00:04:39;;;;;;;42.97;28.30;;;5.90;99.90;;;;;;5101761;28;20512;-82
2021/03/05 00:07:08;;;;;;;44.53;28.27;;;5.90;99.90;;;;;;5098477;28;20449;-81
2021/03/05 00:09:36;;;;;;;44.40;29.97;;;5.90;99.90;;;;;;5099955;28;20458;-85
2021/03/05 00:12:03;;;;;;;48.17;30.00;;;5.80;99.90;;;;;;5097942;28;20510;-83
2021/03/05 00:14:30;;;;;;;49.47;28.30;;;5.80;99.90;;;;;;5100726;28;20519;-86
2021/03/05 00:16:57;;;;;;;44.70;28.77;;;5.80;99.90;;;;;;5100563;28;20478;-84
2021/03/05 00:19:23;;;;;;;46.47;29.00;;;5.80;99.90;;;;;;5096914;28;20520;-84
2021/03/05 00:21:49;;;;;;;43.00;27.20;;;5.90;99.90;;;;;;5095729;28;20457;-85
2021/03/05 00:24:16;;;;;;;42.97;27.40;;;5.80;99.90;;;;;;5092836;28;20449;-83
2021/03/05 00:26:43;;;;;;;43.77;26.70;;;5.80;99.90;;;;;;5089008;28;20785;-85
2021/03/05 00:29:10;;;;;;;47.30;26.30;;;5.80;99.90;;;;;;5085521;28;20646;-85
2021/03/05 00:31:37;;;;;;;43.90;27.73;;;5.70;99.90;;;;;;5087732;28;20448;-85
2021/03/05 00:34:05;;;;;;;47.80;29.47;;;5.70;99.90;;;;;;5089240;28;21069;-86
2021/03/05 00:36:32;;;;;;;45.63;28.00;;;5.70;99.90;;;;;;5084762;28;20471;-84
2021/03/05 00:38:58;;;;;;;41.57;28.50;;;5.70;99.90;;;;;;5087834;28;20497;-86
2021/03/05 00:41:27;;;;;;;45.23;28.53;;;5.60;99.90;;;;;;5084808;28;20460;-85
2021/03/05 00:43:54;;;;;;;46.10;28.70;;;5.50;99.90;;;;;;5092174;28;20486;-84
2021/03/05 00:46:21;;;;;;;47.67;28.53;;;5.40;99.90;;;;;;5085252;28;20456;-83
2021/03/05 00:48:48;;;;;;;43.33;27.40;;;5.40;99.90;;;;;;5091840;28;20445;-86
2021/03/05 00:51:14;;;;;;;42.47;27.60;;;5.30;99.90;;;;;;5084341;28;20491;-84
2021/03/05 00:53:41;;;;;;;46.50;28.87;;;5.30;99.90;;;;;;5086977;28;20540;-84
2021/03/05 00:56:07;;;;;;;50.70;30.87;;;5.30;99.90;;;;;;5091598;28;20528;-85
2021/03/05 00:58:34;;;;;;;56.57;33.10;;;5.30;99.90;;;;;;5092897;28;21015;-84
2021/03/05 01:01:01;;;;;;;50.83;32.03;;;5.30;99.90;;;;;;5092440;28;20426;-86
2021/03/05 01:03:27;;;;;;;46.10;28.33;;;5.30;99.90;;;;;;5093709;28;20468;-85
2021/03/05 01:05:54;;;;;;;42.53;28.20;;;5.10;99.90;;;;;;5093948;28;20529;-84
2021/03/05 01:08:20;;;;;;;38.83;25.33;;;5.00;99.90;;;;;;5091201;28;20521;-84
2021/03/05 01:10:47;;;;;;;42.40;27.53;;;4.90;99.90;;;;;;5093474;28;20452;-84
2021/03/05 01:13:14;;;;;;;39.53;25.63;;;4.90;99.90;;;;;;5091073;28;20593;-84
2021/03/05 01:15:40;;;;;;;39.80;25.17;;;4.90;99.90;;;;;;5098229;28;20518;-85
2021/03/05 01:18:08;;;;;;;41.63;25.30;;;5.00;99.90;;;;;;5092533;28;20484;-86
2021/03/05 01:20:36;;;;;;;37.27;24.30;;;4.90;99.90;;;;;;5096868;28;20520;-83
2021/03/05 01:23:03;;;;;;;33.23;23.77;;;4.90;99.90;;;;;;5092073;28;20984;-83
2021/03/05 01:25:33;;;;;;;35.27;23.83;;;4.90;99.90;;;;;;5097379;28;21011;-85
2021/03/05 01:28:00;;;;;;;40.47;26.33;;;4.80;99.90;;;;;;5085394;28;20453;-84
2021/03/05 01:30:27;;;;;;;33.97;24.07;;;4.70;99.90;;;;;;5096627;28;20540;-85
2021/03/05 01:32:53;;;;;;;43.20;24.30;;;4.80;99.90;;;;;;5096041;28;20465;-87
2021/03/05 01:35:25;;;;;;;38.80;24.87;;;4.80;99.90;;;;;;5095256;28;20804;-83
2021/03/05 01:37:52;;;;;;;39.33;24.30;;;4.70;99.90;;;;;;5095447;28;20502;-86
2021/03/05 01:40:23;;;;;;;38.17;24.27;;;4.70;99.90;;;;;;5094245;28;21093;-84
2021/03/05 01:42:50;;;;;;;37.00;25.27;;;4.70;99.90;;;;;;5090275;28;20455;-84
2021/03/05 01:45:20;;;;;;;35.37;21.60;;;4.70;99.90;;;;;;5095688;28;20450;-84
2021/03/05 01:47:48;;;;;;;26.50;18.97;;;4.60;99.90;;;;;;5103966;28;20477;-89
2021/03/05 01:50:17;;;;;;;25.57;18.80;;;4.50;99.90;;;;;;5103330;28;20452;-85
2021/03/05 01:52:46;;;;;;;24.97;18.67;;;4.50;99.90;;;;;;5103891;28;20449;-85
2021/03/05 01:55:14;;;;;;;26.60;19.50;;;4.50;99.90;;;;;;5097145;28;20994;-85
2021/03/05 01:57:40;;;;;;;25.57;18.33;;;4.30;99.90;;;;;;5084576;28;20465;-87
2021/03/05 02:00:09;;;;;;;24.93;18.13;;;4.20;99.90;;;;;;5095107;28;20476;-85
2021/03/05 02:02:36;;;;;;;25.10;17.43;;;4.20;99.90;;;;;;5094210;28;20967;-85
2021/03/05 02:05:03;;;;;;;27.03;18.83;;;4.20;99.90;;;;;;5076314;28;20551;-85
2021/03/05 02:07:30;;;;;;;22.37;16.97;;;4.10;99.90;;;;;;5096293;28;20476;-85
2021/03/05 02:09:57;;;;;;;21.97;16.73;;;4.10;99.90;;;;;;5093938;28;21005;-85
2021/03/05 02:12:25;;;;;;;22.27;18.00;;;4.00;99.90;;;;;;5092879;28;20444;-85
2021/03/05 02:14:52;;;;;;;25.97;19.37;;;4.00;99.90;;;;;;5093550;28;20787;-84
2021/03/05 02:17:24;;;;;;;26.33;19.03;;;4.10;99.90;;;;;;5094069;28;21196;-87
2021/03/05 02:20:13;;;;;;;25.13;18.13;;;4.00;99.90;;;;;;5094506;28;20539;-85
2021/03/05 02:23:05;;;;;;;26.63;19.33;;;4.00;99.90;;;;;;5102155;28;20455;-85
2021/03/05 02:26:17;;;;;;;27.20;19.63;;;4.00;99.90;;;;;;5088200;28;20509;-86
2021/03/05 02:29:12;;;;;;;24.47;18.63;;;4.00;99.90;;;;;;5040007;28;20523;-83
2021/03/05 02:31:43;;;;;;;20.37;14.90;;;4.00;99.90;;;;;;5036778;28;20593;-86
2021/03/05 02:34:17;;;;;;;21.13;15.80;;;3.80;99.90;;;;;;5082054;28;20798;-83
2021/03/05 02:36:50;;;;;;;21.00;13.80;;;3.60;99.90;;;;;;5097078;28;20539;-83
2021/03/05 02:39:20;;;;;;;18.40;13.00;;;3.40;99.90;;;;;;5098736;28;20515;-87
2021/03/05 02:41:52;;;;;;;16.43;12.40;;;3.20;99.90;;;;;;5096753;28;21084;-87
2021/03/05 02:44:23;;;;;;;14.33;10.60;;;3.10;99.90;;;;;;5104452;28;20455;-89
2021/03/05 02:46:53;;;;;;;12.73;10.60;;;2.80;99.90;;;;;;5112243;28;20432;-89
2021/03/05 02:49:22;;;;;;;13.27;10.37;;;2.60;99.90;;;;;;5109734;28;20456;-87
2021/03/05 02:51:50;;;;;;;14.70;10.80;;;2.30;99.90;;;;;;5098237;28;20482;-87
2021/03/05 02:54:18;;;;;;;13.77;10.43;;;2.20;99.90;;;;;;5098239;28;21172;-86
2021/03/05 02:56:46;;;;;;;14.60;11.70;;;2.20;99.90;;;;;;5095425;28;20447;-86
2021/03/05 02:59:14;;;;;;;17.60;11.03;;;2.20;99.90;;;;;;5085635;28;21013;-87
2021/03/05 03:01:46;;;;;;;17.87;12.47;;;1.90;99.90;;;;;;5105537;28;20464;-86
2021/03/05 03:04:14;;;;;;;23.63;13.40;;;2.00;99.90;;;;;;5102156;28;20511;-88
2021/03/05 03:06:46;;;;;;;17.17;13.57;;;2.00;99.90;;;;;;5099865;28;20470;-86
2021/03/05 03:09:14;;;;;;;20.93;13.73;;;1.90;99.90;;;;;;5093780;28;20538;-86
2021/03/05 03:11:42;;;;;;;18.07;13.00;;;2.00;99.90;;;;;;5080191;28;20463;-85
2021/03/05 03:14:11;;;;;;;19.73;13.77;;;2.20;99.90;;;;;;5095987;28;20505;-86
2021/03/05 03:16:39;;;;;;;19.87;12.70;;;2.20;99.90;;;;;;5101515;28;20567;-87
2021/03/05 03:19:09;;;;;;;24.57;14.17;;;2.20;99.90;;;;;;5092714;28;20501;-87
2021/03/05 03:21:37;;;;;;;26.83;15.50;;;2.30;99.90;;;;;;5092032;28;20516;-88
2021/03/05 03:24:05;;;;;;;28.23;15.93;;;2.30;99.90;;;;;;5106588;28;20482;-88
2021/03/05 03:26:32;;;;;;;20.90;14.60;;;2.40;99.90;;;;;;5102769;28;20966;-87
2021/03/05 03:28:58;;;;;;;24.50;14.60;;;2.40;99.90;;;;;;5102142;28;20440;-85
2021/03/05 03:31:25;;;;;;;24.20;15.87;;;2.40;99.90;;;;;;5112951;28;20456;-86
2021/03/05 03:33:52;;;;;;;22.93;13.83;;;2.40;99.90;;;;;;5100106;28;20436;-85
2021/03/05 03:36:19;;;;;;;22.43;14.43;;;2.40;99.90;;;;;;5105549;28;20535;-91
2021/03/05 03:38:48;;;;;;;22.60;14.07;;;2.40;99.90;;;;;;5106137;28;20581;-85
2021/03/05 03:41:15;;;;;;;21.23;12.97;;;2.40;99.90;;;;;;5113760;28;20521;-89
2021/03/05 03:43:42;;;;;;;21.10;12.10;;;2.30;99.90;;;;;;5114171;28;20444;-92
2021/03/05 03:46:09;;;;;;;24.57;13.20;;;2.30;99.90;;;;;;5107553;28;20466;-86
2021/03/05 03:48:41;;;;;;;19.90;11.83;;;2.30;99.90;;;;;;5096515;28;20799;-86
2021/03/05 03:51:11;;;;;;;20.93;11.80;;;2.20;99.90;;;;;;5096790;28;20954;-89
2021/03/05 03:53:39;;;;;;;22.43;11.20;;;2.30;99.90;;;;;;5089124;28;20531;-87
2021/03/05 03:56:09;;;;;;;24.67;11.73;;;2.20;99.90;;;;;;5097188;28;20451;-86
2021/03/05 03:58:40;;;;;;;28.20;13.40;;;2.10;99.90;;;;;;5096886;28;20474;-88
2021/03/05 04:01:10;;;;;;;22.33;11.57;;;2.00;99.90;;;;;;5106799;28;20443;-89
2021/03/05 04:03:39;;;;;;;23.33;11.27;;;2.10;99.90;;;;;;5107033;28;20458;-87
2021/03/05 04:06:09;;;;;;;22.50;11.80;;;2.00;99.90;;;;;;5115373;28;20510;-86
2021/03/05 04:08:39;;;;;;;29.20;12.17;;;1.90;99.90;;;;;;5098493;28;20447;-85
2021/03/05 04:11:08;;;;;;;26.67;12.17;;;1.90;99.90;;;;;;5072295;28;20440;-84
2021/03/05 04:13:36;;;;;;;28.03;11.87;;;1.80;99.90;;;;;;5080906;28;20471;-87
2021/03/05 04:16:03;;;;;;;22.70;11.13;;;1.80;99.90;;;;;;5098238;28;20449;-84
2021/03/05 04:18:32;;;;;;;21.17;10.43;;;1.80;99.90;;;;;;5096371;28;20590;-85
2021/03/05 04:21:02;;;;;;;27.27;11.93;;;1.70;99.90;;;;;;5092641;28;20448;-86
2021/03/05 04:23:28;;;;;;;24.27;11.33;;;1.70;99.90;;;;;;5094846;28;20462;-86
2021/03/05 04:25:55;;;;;;;27.73;12.57;;;1.70;99.90;;;;;;5092664;28;20539;-85
2021/03/05 04:28:22;;;;;;;29.40;12.93;;;1.80;99.90;;;;;;5090955;28;21301;-86
2021/03/05 04:30:49;;;;;;;29.13;10.93;;;1.80;99.90;;;;;;5091095;28;20877;-85
2021/03/05 04:33:15;;;;;;;29.67;12.90;;;1.70;99.90;;;;;;5091395;28;20448;-85
2021/03/05 04:35:42;;;;;;;27.60;12.77;;;1.80;99.90;;;;;;5086750;28;20849;-88
2021/03/05 04:38:08;;;;;;;28.50;11.90;;;1.60;99.90;;;;;;5093029;28;20471;-86
2021/03/05 04:40:35;;;;;;;27.00;10.77;;;1.60;99.90;;;;;;5074063;28;20459;-84
2021/03/05 04:43:02;;;;;;;23.07;9.77;;;1.70;99.90;;;;;;5092707;28;20451;-88
2021/03/05 04:45:29;;;;;;;27.73;11.43;;;1.70;99.90;;;;;;5092176;28;20552;-86
2021/03/05 04:47:55;;;;;;;28.43;12.50;;;1.70;99.90;;;;;;5098921;28;20439;-90
2021/03/05 04:50:22;;;;;;;25.20;11.30;;;1.60;99.90;;;;;;5078625;28;20486;-86
2021/03/05 04:52:48;;;;;;;32.10;13.40;;;1.50;99.90;;;;;;5079548;28;20462;-86
2021/03/05 04:55:15;;;;;;;32.30;13.83;;;1.50;99.90;;;;;;5085537;28;20452;-85
2021/03/05 04:57:41;;;;;;;32.83;14.20;;;1.60;99.90;;;;;;5082757;28;20546;-86
2021/03/05 05:00:09;;;;;;;32.23;13.80;;;1.50;99.90;;;;;;5085434;28;20451;-86
2021/03/05 05:02:36;;;;;;;30.07;13.43;;;1.50;99.90;;;;;;5094752;28;20452;-87
2021/03/05 05:05:03;;;;;;;29.77;14.23;;;1.60;99.90;;;;;;5096461;28;20854;-88
2021/03/05 05:07:33;;;;;;;33.13;13.80;;;1.50;99.90;;;;;;5094878;28;20490;-86
2021/03/05 05:10:00;;;;;;;32.60;14.17;;;1.60;99.90;;;;;;5095532;28;21055;-86
2021/03/05 05:12:26;;;;;;;31.23;13.10;;;1.70;99.90;;;;;;5094436;28;20459;-86
2021/03/05 05:14:53;;;;;;;34.60;14.67;;;1.70;99.90;;;;;;5097827;28;20780;-85
2021/03/05 05:17:19;;;;;;;32.80;15.27;;;1.70;99.90;;;;;;5095983;28;20555;-85
2021/03/05 05:19:46;;;;;;;30.17;14.60;;;1.80;99.90;;;;;;5095544;28;20497;-87
2021/03/05 05:22:13;;;;;;;33.67;14.80;;;1.70;99.90;;;;;;5096394;28;20463;-91
2021/03/05 05:24:39;;;;;;;29.50;15.73;;;1.80;99.90;;;;;;5103798;28;20613;-85
2021/03/05 05:27:06;;;;;;;24.23;13.30;;;1.80;99.90;;;;;;5108974;28;20465;-86
2021/03/05 05:29:33;;;;;;;32.40;13.43;;;1.80;99.90;;;;;;5112776;28;20443;-88
2021/03/05 05:31:59;;;;;;;27.10;12.83;;;1.80;99.90;;;;;;5108139;28;20504;-85
2021/03/05 05:34:26;;;;;;;30.83;13.67;;;1.70;99.90;;;;;;5113855;28;20459;-88
2021/03/05 05:36:53;;;;;;;32.83;13.70;;;1.80;99.90;;;;;;5101264;28;20447;-85
2021/03/05 05:39:20;;;;;;;26.10;12.97;;;1.80;99.90;;;;;;5102796;28;20479;-85
2021/03/05 05:41:47;;;;;;;34.90;14.20;;;1.80;99.90;;;;;;5101571;28;20532;-85
2021/03/05 05:44:15;;;;;;;31.20;14.50;;;1.80;99.90;;;;;;5082691;28;20457;-84
2021/03/05 05:46:46;;;;;;;32.07;13.37;;;1.80;99.90;;;;;;5084558;28;20467;-87
2021/03/05 05:49:16;;;;;;;31.90;13.97;;;1.70;99.90;;;;;;5081991;28;20452;-85
2021/03/05 05:51:43;;;;;;;33.93;13.83;;;1.80;99.90;;;;;;5084996;28;20460;-84
2021/03/05 05:54:16;;;;;;;31.60;13.20;;;1.80;99.90;;;;;;5090923;28;20468;-85
2021/03/05 05:56:44;;;;;;;32.07;13.70;;;1.80;99.90;;;;;;5097844;28;20464;-87
2021/03/05 05:59:11;;;;;;;33.03;15.30;;;1.80;99.90;;;;;;5095949;28;20467;-87
2021/03/05 06:01:38;;;;;;;35.53;15.43;;;1.80;99.90;;;;;;5096635;28;20558;-85
2021/03/05 06:04:07;;;;;;;29.13;14.00;;;2.00;99.90;;;;;;5078817;28;20468;-85
2021/03/05 06:06:34;;;;;;;34.67;14.63;;;1.90;99.90;;;;;;5099579;28;20439;-85
2021/03/05 06:09:02;;;;;;;38.27;14.93;;;1.80;99.90;;;;;;5098807;28;20534;-88
2021/03/05 06:11:34;;;;;;;36.07;15.80;;;1.90;99.90;;;;;;5101609;28;20461;-84
2021/03/05 06:14:03;;;;;;;34.60;14.60;;;1.90;99.90;;;;;;5101284;28;20463;-84
2021/03/05 06:16:29;;;;;;;36.83;14.60;;;1.90;99.90;;;;;;5103232;28;20475;-86
2021/03/05 06:18:57;;;;;;;31.17;14.40;;;1.90;99.90;;;;;;5086845;28;20474;-89
2021/03/05 06:21:38;;;;;;;37.73;15.33;;;2.00;99.90;;;;;;5101342;28;20508;-87
2021/03/05 06:24:07;;;;;;;37.67;15.20;;;2.00;99.90;;;;;;5097312;28;20468;-82
2021/03/05 06:26:48;;;;;;;36.00;14.80;;;1.90;99.90;;;;;;5102586;28;20546;-83
2021/03/05 06:29:16;;;;;;;36.90;14.10;;;2.00;99.90;;;;;;5087122;28;20475;-84
2021/03/05 06:31:51;;;;;;;36.90;16.23;;;2.10;99.90;;;;;;5107655;28;20447;-83
2021/03/05 06:34:17;;;;;;;44.37;17.27;;;2.00;99.90;;;;;;5100466;28;20458;-84
2021/03/05 06:36:43;;;;;;;41.00;19.48;;;2.10;99.90;;;;;;5098431;28;20944;-86
2021/03/05 06:39:11;;;;;;;45.33;17.93;;;2.10;99.90;;;;;;5100587;28;20217;-88
2021/03/05 06:41:38;;;;;;;45.90;17.50;;;2.10;99.90;;;;;;5100107;28;20475;-88
2021/03/05 06:44:10;;;;;;;41.93;17.40;;;2.20;99.90;;;;;;5113720;28;20534;-87
2021/03/05 06:46:38;;;;;;;33.73;16.70;;;2.20;99.90;;;;;;5084007;28;20459;-87
2021/03/05 06:49:09;;;;;;;38.57;17.77;;;2.40;99.90;;;;;;5102298;28;20454;-88
2021/03/05 06:51:36;;;;;;;43.00;16.83;;;2.30;99.90;;;;;;5104365;28;20517;-88
2021/03/05 06:56:49;;;;;;;40.43;16.97;;;2.40;99.90;;;;;;5110428;28;20448;-88
2021/03/05 06:59:21;;;;;;;36.00;15.97;;;2.30;99.90;;;;;;5113116;28;20487;-89
2021/03/05 07:01:55;;;;;;;47.53;17.40;;;2.30;99.90;;;;;;5090975;28;20424;-89
2021/03/05 07:04:27;;;;;;;38.53;15.87;;;2.40;99.90;;;;;;5089830;28;20491;-89
2021/03/05 07:07:06;;;;;;;37.63;16.10;;;2.40;99.90;;;;;;5113809;28;20500;-89
2021/03/05 07:09:36;;;;;;;36.30;15.30;;;2.40;99.90;;;;;;5092242;28;20441;-88
2021/03/05 07:12:10;;;;;;;38.07;15.00;;;2.40;99.90;;;;;;5101799;28;20473;-89
2021/03/05 07:14:42;;;;;;;33.20;16.40;;;2.40;99.90;;;;;;5112617;28;20539;-88
2021/03/05 07:17:12;;;;;;;34.80;14.90;;;2.50;99.90;;;;;;5110516;28;20457;-88
2021/03/05 07:19:50;;;;;;;26.00;13.30;;;2.50;99.90;;;;;;5112124;28;20470;-89
2021/03/05 07:22:22;;;;;;;30.83;14.10;;;2.50;99.90;;;;;;5095424;28;20515;-86
2021/03/05 07:24:55;;;;;;;36.20;14.90;;;2.70;99.90;;;;;;5107239;28;20445;-88
2021/03/05 07:27:28;;;;;;;24.10;13.00;;;2.70;99.90;;;;;;5115978;28;20463;-89
2021/03/05 07:30:04;;;;;;;31.00;14.87;;;2.80;99.90;;;;;;5104199;28;20465;-89
2021/03/05 07:32:46;;;;;;;27.60;14.23;;;2.70;99.90;;;;;;5109153;28;20466;-88
2021/03/05 07:35:18;;;;;;;27.07;13.60;;;2.80;99.90;;;;;;5117742;28;20441;-86
2021/03/05 07:37:48;;;;;;;27.20;13.93;;;2.80;99.90;;;;;;5117243;28;20444;-89
2021/03/05 07:40:20;;;;;;;29.27;14.30;;;3.00;99.90;;;;;;5111335;28;20495;-88
2021/03/05 07:45:36;;;;;;;26.70;13.03;;;3.00;99.90;;;;;;5094958;28;20458;-87
2021/03/05 07:48:13;;;;;;;29.73;14.93;;;3.10;99.90;;;;;;5111983;28;20454;-88
2021/03/05 07:50:43;;;;;;;29.53;14.93;;;3.10;99.90;;;;;;5099166;28;20446;-89
2021/03/05 07:53:13;;;;;;;40.87;15.03;;;3.20;99.90;;;;;;5101716;28;20443;-88
2021/03/05 07:55:46;;;;;;;31.27;15.67;;;3.30;99.90;;;;;;5116369;28;20444;-89
2021/03/05 07:58:49;;;;;;;36.20;15.03;;;3.10;98.70;;;;;;5113452;28;20456;-88
2021/03/05 08:01:59;;;;;;;27.87;14.60;;;3.40;99.90;;;;;;5099582;28;20938;-83
2021/03/05 08:04:55;;;;;;;28.67;13.33;;;3.40;95.60;;;;;;5090600;28;20479;-80
2021/03/05 08:07:24;;;;;;;26.43;14.00;;;3.40;96.00;;;;;;5094199;28;20452;-80
2021/03/05 08:09:52;;;;;;;31.10;14.80;;;3.40;93.70;;;;;;5087946;28;20515;-80
2021/03/05 08:12:37;;;;;;;29.40;15.10;;;3.60;97.60;;;;;;5086406;28;20509;-82
2021/03/05 08:15:24;;;;;;;34.03;15.53;;;3.80;93.10;;;;;;5087608;28;20451;-79
2021/03/05 08:17:53;;;;;;;31.50;15.70;;;4.10;93.20;;;;;;5087781;28;20499;-80
2021/03/05 08:20:53;;;;;;;28.80;15.07;;;4.30;91.20;;;;;;5088891;28;20478;-79
2021/03/05 08:23:20;;;;;;;29.97;14.47;;;4.30;92.00;;;;;;5092347;28;20501;-80
2021/03/05 08:25:54;;;;;;;34.90;15.00;;;4.10;90.90;;;;;;5092778;28;20494;-80
2021/03/05 08:28:39;;;;;;;26.50;14.23;;;3.90;90.10;;;;;;5093697;28;20522;-79
2021/03/05 08:31:35;;;;;;;21.33;12.80;;;4.00;90.20;;;;;;5093739;28;20470;-79
2021/03/05 08:34:24;;;;;;;22.07;13.53;;;4.20;91.20;;;;;;5084762;28;20881;-78
2021/03/05 08:36:52;;;;;;;23.17;15.23;;;4.30;91.00;;;;;;5089380;28;20437;-80
2021/03/05 08:39:27;;;;;;;22.30;13.00;;;4.10;88.10;;;;;;5071489;28;20237;-80
2021/03/05 08:42:28;;;;;;;23.30;12.57;;;3.90;88.60;;;;;;5101777;28;20447;-81
2021/03/05 08:45:09;;;;;;;28.13;12.70;;;3.70;89.30;;;;;;5106400;28;20492;-80
2021/03/05 08:47:35;;;;;;;25.03;14.30;;;3.60;90.70;;;;;;5090170;28;20441;-80
2021/03/05 08:50:04;;;;;;;19.40;12.53;;;4.00;91.90;;;;;;5088947;28;20461;-84
2021/03/05 08:52:32;;;;;;;23.40;13.00;;;3.90;89.70;;;;;;5090112;28;20455;-76
2021/03/05 08:54:58;;;;;;;23.03;13.30;;;4.00;90.50;;;;;;5084539;28;20479;-75
2021/03/05 08:57:25;;;;;;;22.00;13.00;;;3.80;89.70;;;;;;5085322;28;20561;-76
2021/03/05 08:59:53;;;;;;;23.33;13.40;;;3.90;89.10;;;;;;5079387;28;20975;-77
2021/03/05 09:02:20;;;;;;;20.17;12.53;;;4.00;90.70;;;;;;5088092;28;20933;-77
2021/03/05 09:04:46;;;;;;;19.63;11.13;;;4.00;87.50;;;;;;5075981;28;20449;-78
2021/03/05 09:07:14;;;;;;;19.90;11.40;;;3.80;84.90;;;;;;5084546;28;20482;-77
2021/03/05 09:09:40;;;;;;;18.07;11.90;;;4.00;85.30;;;;;;5087122;28;20485;-78
2021/03/05 09:12:12;;;;;;;17.60;11.50;;;4.20;85.20;;;;;;5081310;28;20458;-75
2021/03/05 09:14:40;;;;;;;19.27;11.37;;;4.20;84.50;;;;;;5085430;28;20448;-76
2021/03/05 09:17:08;;;;;;;20.93;12.07;;;4.20;85.30;;;;;;5081961;28;20506;-77
2021/03/05 09:19:39;;;;;;;24.70;12.47;;;4.30;85.70;;;;;;5085063;28;20576;-76
2021/03/05 09:22:07;;;;;;;17.80;11.03;;;4.20;83.30;;;;;;5082187;28;20447;-75
2021/03/05 09:25:05;;;;;;;18.80;11.70;;;4.20;82.90;;;;;;5085680;28;20449;-78
2021/03/05 09:27:33;;;;;;;15.20;10.27;;;4.10;82.60;;;;;;5040013;28;20448;-76
2021/03/05 09:30:01;;;;;;;17.30;10.60;;;4.20;82.20;;;;;;5083361;28;20446;-77
2021/03/05 09:32:27;;;;;;;20.77;11.57;;;4.20;81.50;;;;;;5072615;28;20469;-77
2021/03/05 09:34:57;;;;;;;17.87;10.40;;;4.50;82.20;;;;;;5085772;28;20449;-75
2021/03/05 09:37:25;;;;;;;16.57;10.47;;;4.50;79.70;;;;;;5089877;28;20451;-77
2021/03/05 09:39:53;;;;;;;18.93;10.73;;;4.80;80.20;;;;;;5086460;28;20475;-78
2021/03/05 09:42:44;;;;;;;16.20;10.40;;;4.90;80.40;;;;;;5085984;28;20459;-76
2021/03/05 09:45:12;;;;;;;18.83;10.20;;;5.20;79.00;;;;;;5087130;28;20466;-78
2021/03/05 09:47:48;;;;;;;14.90;9.83;;;5.40;78.10;;;;;;5083837;28;20537;-77
2021/03/05 09:50:22;;;;;;;17.97;9.80;;;5.60;77.70;;;;;;5085926;28;20704;-77
2021/03/05 09:52:49;;;;;;;12.53;8.00;;;5.60;77.10;;;;;;5083854;28;20950;-77
2021/03/05 09:55:27;;;;;;;12.50;9.10;;;5.60;75.90;;;;;;5089465;28;20461;-75
2021/03/05 09:57:55;;;;;;;15.80;9.30;;;5.40;76.00;;;;;;5083667;28;20493;-76
2021/03/05 10:00:30;;;;;;;13.83;9.40;;;5.50;76.50;;;;;;5086445;28;20489;-80
2021/03/05 10:03:05;;;;;;;11.40;8.90;;;5.60;76.40;;;;;;5084975;28;20459;-77
2021/03/05 10:05:32;;;;;;;13.23;9.43;;;5.40;76.50;;;;;;5088604;28;20452;-76
2021/03/05 10:07:59;;;;;;;15.67;9.40;;;5.50;76.10;;;;;;5086333;28;20452;-78
2021/03/05 10:10:26;;;;;;;22.77;11.10;;;5.20;75.80;;;;;;5086638;28;20453;-80
2021/03/05 10:12:55;;;;;;;18.97;10.77;;;5.50;76.80;;;;;;5085115;28;21184;-79
2021/03/05 10:15:22;;;;;;;18.60;10.00;;;5.80;76.50;;;;;;5088723;28;20496;-77
2021/03/05 10:17:49;;;;;;;12.07;9.55;;;5.80;76.00;;;;;;5097150;28;20928;-85
2021/03/05 10:20:16;;;;;;;16.25;9.93;;;5.90;75.10;;;;;;5099008;28;20456;-78
2021/03/05 10:22:50;;;;;;;12.57;8.20;;;5.70;75.60;;;;;;5088837;28;20202;-76
2021/03/05 10:25:17;;;;;;;12.73;8.47;;;5.50;76.20;;;;;;5084286;28;20497;-76
2021/03/05 10:27:45;;;;;;;15.93;8.87;;;5.30;76.40;;;;;;5100631;28;20456;-75
2021/03/05 10:30:14;;;;;;;13.27;9.00;;;4.90;77.10;;;;;;5104246;28;20492;-76
2021/03/05 10:32:47;;;;;;;13.10;10.00;;;4.80;78.10;;;;;;5092836;28;20509;-75
2021/03/05 10:35:16;;;;;;;7.17;5.30;;;4.50;79.60;;;;;;5086531;28;20452;-75
2021/03/05 10:37:44;;;;;;;5.60;4.20;;;3.90;77.10;;;;;;5087726;28;20450;-75
2021/03/05 10:40:14;;;;;;;7.57;4.87;;;3.50;77.60;;;;;;5083633;28;20582;-75
2021/03/05 10:42:41;;;;;;;7.83;5.30;;;3.20;81.20;;;;;;5087595;28;20549;-76
2021/03/05 10:45:08;;;;;;;7.57;4.90;;;3.20;85.50;;;;;;5092371;28;20452;-75
2021/03/05 10:47:36;;;;;;;8.93;5.17;;;3.40;88.90;;;;;;5089565;28;20451;-75
2021/03/05 10:50:04;;;;;;;9.03;5.50;;;3.60;85.30;;;;;;5085696;28;20456;-75
2021/03/05 10:52:30;;;;;;;8.93;5.63;;;3.70;81.30;;;;;;5087167;28;20789;-76
2021/03/05 10:54:57;;;;;;;7.30;5.10;;;3.80;80.70;;;;;;5087642;28;20563;-75
2021/03/05 10:57:23;;;;;;;7.77;6.17;;;3.70;80.70;;;;;;5088500;28;20440;-76
2021/03/05 10:59:50;;;;;;;8.30;5.70;;;3.70;81.10;;;;;;5084463;28;20466;-77
2021/03/05 11:02:18;;;;;;;8.07;6.13;;;3.80;80.80;;;;;;5088056;28;20484;-76
2021/03/05 11:04:46;;;;;;;6.03;3.93;;;4.20;84.50;;;;;;5076906;28;20517;-78
2021/03/05 11:07:12;;;;;;;7.67;4.30;;;3.80;72.30;;;;;;5074479;28;20485;-75
2021/03/05 11:09:39;;;;;;;6.03;3.77;;;4.00;73.60;;;;;;5087789;28;20518;-75
2021/03/05 11:12:06;;;;;;;4.90;3.60;;;3.90;70.30;;;;;;5084748;28;20555;-81
2021/03/05 11:14:33;;;;;;;4.73;3.83;;;3.80;69.70;;;;;;5079006;28;20448;-75
2021/03/05 11:17:00;;;;;;;4.83;2.90;;;4.20;70.40;;;;;;5079136;28;20472;-74
2021/03/05 11:19:27;;;;;;;4.10;3.20;;;4.10;69.00;;;;;;5081398;28;20473;-76
2021/03/05 11:21:54;;;;;;;5.40;3.70;;;4.20;68.80;;;;;;5085566;28;20457;-74
2021/03/05 11:24:21;;;;;;;4.37;3.10;;;4.00;67.10;;;;;;5076102;28;20660;-78
2021/03/05 11:26:48;;;;;;;4.53;3.50;;;3.90;66.10;;;;;;5076712;28;20890;-75
2021/03/05 11:29:15;;;;;;;3.67;2.93;;;3.90;65.50;;;;;;5086779;28;20953;-75
2021/03/05 11:31:41;;;;;;;4.73;4.07;;;4.00;65.40;;;;;;5080084;28;20813;-78
2021/03/05 11:34:07;;;;;;;5.57;3.60;;;4.10;64.70;;;;;;5088842;28;20456;-76
2021/03/05 11:36:34;;;;;;;4.40;3.80;;;4.40;65.20;;;;;;5086461;28;21148;-76
2021/03/05 11:39:01;;;;;;;6.47;4.03;;;4.30;64.30;;;;;;5080460;28;20541;-75
2021/03/05 11:41:28;;;;;;;6.23;4.40;;;4.30;64.90;;;;;;5084548;28;20538;-77
2021/03/05 11:43:55;;;;;;;4.87;4.00;;;4.40;64.70;;;;;;5090946;28;20446;-77
2021/03/05 11:46:22;;;;;;;5.83;4.10;;;4.20;64.10;;;;;;5084315;28;20471;-78
2021/03/05 11:48:49;;;;;;;4.47;3.40;;;4.10;64.10;;;;;;5093013;28;20786;-78
2021/03/05 11:51:18;;;;;;;5.40;3.87;;;4.10;63.80;;;;;;5095657;28;20463;-81
2021/03/05 11:53:45;;;;;;;7.23;4.23;;;3.90;64.00;;;;;;5099488;28;20555;-79
2021/03/05 11:56:12;;;;;;;7.80;4.33;;;3.80;63.90;;;;;;5092971;28;20479;-79
2021/03/05 11:58:39;;;;;;;6.90;4.20;;;3.90;64.20;;;;;;5101675;28;20718;-79
2021/03/05 12:01:06;;;;;;;5.40;4.30;;;3.70;63.80;;;;;;5101097;28;20475;-80
2021/03/05 12:03:33;;;;;;;4.93;3.37;;;3.80;63.30;;;;;;5102019;28;20482;-79
2021/03/05 12:05:59;;;;;;;7.67;4.43;;;3.80;61.10;;;;;;5109518;28;20490;-80
2021/03/05 12:08:26;;;;;;;6.27;4.33;;;3.90;61.40;;;;;;5105606;28;20477;-79
2021/03/05 12:10:53;;;;;;;5.97;3.90;;;4.30;62.10;;;;;;5098928;28;20452;-79
2021/03/05 12:13:20;;;;;;;6.77;4.20;;;4.50;61.90;;;;;;5101072;28;20463;-80
2021/03/05 12:15:47;;;;;;;6.90;4.20;;;4.20;59.60;;;;;;5097857;28;20439;-80
2021/03/05 12:18:14;;;;;;;5.17;3.73;;;4.20;59.50;;;;;;5098489;28;20506;-79
2021/03/05 12:20:40;;;;;;;6.70;4.80;;;4.60;59.40;;;;;;5096703;28;20532;-79
2021/03/05 12:23:09;;;;;;;4.90;4.20;;;5.10;60.30;;;;;;5102041;28;20460;-80
2021/03/05 12:25:36;;;;;;;4.60;3.70;;;5.40;59.20;;;;;;5096441;28;20459;-80
2021/03/05 12:28:03;;;;;;;5.50;4.10;;;5.50;59.70;;;;;;5092669;28;20813;-77
2021/03/05 12:30:32;;;;;;;5.80;4.27;;;5.20;58.20;;;;;;5097255;28;20446;-80
2021/03/05 12:32:58;;;;;;;5.00;3.80;;;4.80;55.90;;;;;;5102581;28;20459;-82
2021/03/05 12:35:25;;;;;;;5.93;4.30;;;4.50;56.10;;;;;;5100784;28;20471;-79
2021/03/05 12:37:52;;;;;;;10.23;4.80;;;5.00;57.30;;;;;;5094530;28;20446;-76
2021/03/05 12:40:20;;;;;;;4.23;3.30;;;4.90;57.30;;;;;;5092539;28;20474;-78
2021/03/05 12:42:46;;;;;;;4.70;3.30;;;4.60;55.70;;;;;;5093217;28;20456;-79
2021/03/05 12:45:14;;;;;;;7.57;3.77;;;4.90;55.70;;;;;;5087177;28;20454;-79
2021/03/05 12:47:42;;;;;;;4.73;3.60;;;5.20;56.00;;;;;;5089068;28;20456;-78
2021/03/05 12:50:09;;;;;;;4.77;2.93;;;5.20;54.60;;;;;;5087718;28;20452;-78
2021/03/05 12:52:36;;;;;;;8.37;3.73;;;5.30;54.60;;;;;;5088997;28;20467;-80
2021/03/05 12:55:04;;;;;;;3.83;3.40;;;5.00;53.10;;;;;;5086382;28;20447;-78
2021/03/05 12:57:30;;;;;;;5.70;2.93;;;5.10;52.40;;;;;;5088257;28;20457;-79
2021/03/05 12:59:57;;;;;;;5.30;3.80;;;5.20;52.70;;;;;;5089145;28;20483;-80